createdAt,value
2018-03-24T00:01:54.741Z,100.00
2018-03-24T00:04:23.126Z,100.00
2018-03-24T00:06:50.850Z,100.00
2018-03-24T00:09:18.579Z,100.00
2018-03-24T00:11:46.253Z,100.00
2018-03-24T00:14:13.976Z,100.00
2018-03-24T00:16:42.116Z,100.00
2018-03-24T00:19:09.896Z,100.00
2018-03-24T00:21:37.626Z,100.00
2018-03-24T00:24:05.757Z,100.00
2018-03-24T00:26:33.536Z,100.00
2018-03-24T00:29:01.314Z,100.00
2018-03-24T00:31:29.502Z,100.00
2018-03-24T00:33:57.237Z,100.00
2018-03-24T00:36:24.959Z,100.00
2018-03-24T00:38:53.144Z,100.00
2018-03-24T00:41:20.920Z,100.00
2018-03-24T00:43:48.593Z,100.00
2018-03-24T00:46:16.475Z,100.00
2018-03-24T00:48:44.253Z,100.00
2018-03-24T00:51:12.032Z,100.00
2018-03-24T00:53:40.220Z,100.00
2018-03-24T00:56:07.894Z,100.00
2018-03-24T00:58:35.490Z,100.00
2018-03-24T01:01:03.316Z,100.00
2018-03-24T01:03:31.020Z,100.00
2018-03-24T01:05:58.747Z,100.00
2018-03-24T01:08:26.585Z,100.00
2018-03-24T01:10:54.358Z,100.00
2018-03-24T01:13:22.132Z,100.00
2018-03-24T01:15:49.808Z,100.00
2018-03-24T01:18:17.593Z,100.00
2018-03-24T01:20:45.469Z,100.00
2018-03-24T01:23:13.247Z,100.00
2018-03-24T01:25:41.025Z,100.00
2018-03-24T01:28:08.803Z,100.00
2018-03-24T01:30:36.864Z,100.00
2018-03-24T01:33:04.669Z,100.00
2018-03-24T01:35:32.341Z,100.00
2018-03-24T01:38:00.227Z,100.00
2018-03-24T01:40:27.957Z,100.00
2018-03-24T01:42:55.779Z,100.00
2018-03-24T01:45:23.660Z,100.00
2018-03-24T01:47:51.514Z,100.00
2018-03-24T01:50:19.319Z,100.00
2018-03-24T01:52:47.149Z,100.00
2018-03-24T01:55:15.178Z,100.00
2018-03-24T01:57:42.921Z,100.00
2018-03-24T02:00:10.732Z,100.00
2018-03-24T02:02:38.620Z,100.00
2018-03-24T02:05:06.393Z,100.00
2018-03-24T02:07:34.173Z,100.00
2018-03-24T02:10:01.902Z,100.00
2018-03-24T02:12:29.938Z,100.00
2018-03-24T02:14:57.661Z,100.00
2018-03-24T02:17:25.385Z,100.00
2018-03-24T02:19:53.220Z,100.00
2018-03-24T02:22:20.947Z,100.00
2018-03-24T02:24:54.967Z,100.00
2018-03-24T02:27:22.747Z,100.00
2018-03-24T02:29:50.426Z,100.00
2018-03-24T02:32:18.608Z,100.00
2018-03-24T02:34:46.296Z,100.00
2018-03-24T02:37:13.952Z,100.00
2018-03-24T02:39:42.143Z,100.00
2018-03-24T02:42:09.924Z,100.00
2018-03-24T02:44:37.661Z,100.00
2018-03-24T02:47:05.482Z,100.00
2018-03-24T02:49:33.271Z,100.00
2018-03-24T02:52:01.453Z,100.00
2018-03-24T02:54:29.189Z,100.00
2018-03-24T02:56:57.002Z,100.00
2018-03-24T02:59:24.879Z,100.00
2018-03-24T03:01:52.560Z,100.00
2018-03-24T03:04:20.292Z,100.00
2018-03-24T03:06:48.116Z,100.00
2018-03-24T03:09:15.891Z,100.00
2018-03-24T03:11:43.499Z,100.00
2018-03-24T03:14:11.343Z,100.00
2018-03-24T03:16:39.225Z,100.00
2018-03-24T03:19:06.970Z,100.00
2018-03-24T03:24:33.790Z,100.00
2018-03-24T03:27:01.524Z,100.00
2018-03-24T03:29:29.316Z,100.00
2018-03-24T03:32:02.968Z,100.00
2018-03-24T03:34:30.742Z,100.00
2018-03-24T03:36:58.415Z,100.00
2018-03-24T03:39:26.197Z,100.00
2018-03-24T03:41:54.085Z,100.00
2018-03-24T03:44:21.747Z,100.00
2018-03-24T03:46:49.530Z,100.00
2018-03-24T03:49:17.616Z,100.00
2018-03-24T03:51:45.341Z,100.00
2018-03-24T03:54:13.169Z,100.00
2018-03-24T03:56:41.049Z,100.00
2018-03-24T03:59:08.830Z,100.00
2018-03-24T04:01:36.554Z,100.00
2018-03-24T04:04:04.488Z,100.00
2018-03-24T04:06:32.217Z,100.00
2018-03-24T04:08:59.937Z,100.00
2018-03-24T04:11:27.618Z,100.00
2018-03-24T04:13:55.391Z,100.00
2018-03-24T04:16:23.179Z,100.00
2018-03-24T04:18:50.944Z,100.00
2018-03-24T04:21:18.725Z,99.70
2018-03-24T04:23:46.506Z,97.24
2018-03-24T04:26:14.386Z,98.17
2018-03-24T04:28:42.113Z,97.27
2018-03-24T04:31:09.938Z,95.86
2018-03-24T04:33:37.674Z,96.32
2018-03-24T04:36:05.511Z,96.20
2018-03-24T04:38:33.168Z,96.19
2018-03-24T04:41:00.999Z,97.42
2018-03-24T04:43:28.738Z,98.49
2018-03-24T04:45:56.505Z,99.54
2018-03-24T04:48:24.293Z,99.86
2018-03-24T04:50:51.878Z,99.13
2018-03-24T04:53:19.737Z,99.68
2018-03-24T04:55:47.515Z,100.00
2018-03-24T04:58:15.187Z,100.00
2018-03-24T05:00:42.966Z,100.00
2018-03-24T05:03:10.695Z,100.00
2018-03-24T05:05:38.315Z,100.00
2018-03-24T05:08:06.201Z,100.00
2018-03-24T05:10:33.863Z,100.00
2018-03-24T05:13:01.651Z,100.00
2018-03-24T05:15:29.530Z,100.00
2018-03-24T05:17:57.313Z,100.00
2018-03-24T05:20:25.089Z,100.00
2018-03-24T05:22:52.867Z,100.00
2018-03-24T05:25:20.551Z,100.00
2018-03-24T05:27:48.321Z,100.00
2018-03-24T05:30:16.052Z,100.00
2018-03-24T05:32:43.874Z,100.00
2018-03-24T05:35:11.755Z,100.00
2018-03-24T05:37:39.475Z,100.00
2018-03-24T05:40:07.081Z,100.00
2018-03-24T05:42:34.882Z,100.00
2018-03-24T05:45:02.564Z,100.00
2018-03-24T05:47:30.297Z,100.00
2018-03-24T05:49:58.110Z,100.00
2018-03-24T05:52:25.893Z,100.00
2018-03-24T05:54:53.625Z,100.00
2018-03-24T05:57:21.335Z,100.00
2018-03-24T05:59:49.944Z,100.00
2018-03-24T06:02:17.616Z,100.00
2018-03-24T06:04:45.802Z,100.00
2018-03-24T06:07:13.584Z,100.00
2018-03-24T06:09:41.252Z,99.89
2018-03-24T06:12:09.022Z,100.00
2018-03-24T06:14:36.621Z,100.00
2018-03-24T06:17:04.284Z,100.00
2018-03-24T06:19:32.165Z,100.00
2018-03-24T06:21:59.942Z,100.00
2018-03-24T06:24:27.643Z,100.00
2018-03-24T06:26:55.503Z,100.00
2018-03-24T06:29:23.324Z,100.00
2018-03-24T06:32:02.793Z,99.99
2018-03-24T06:34:30.583Z,99.85
2018-03-24T06:37:08.322Z,99.85
2018-03-24T06:39:36.202Z,99.96
2018-03-24T06:42:04.083Z,99.34
2018-03-24T06:44:31.860Z,99.53
2018-03-24T06:46:59.637Z,99.45
2018-03-24T06:49:27.516Z,99.51
2018-03-24T06:51:55.247Z,99.10
2018-03-24T06:54:22.856Z,99.05
2018-03-24T06:56:50.608Z,99.06
2018-03-24T06:59:18.425Z,99.15
2018-03-24T07:01:46.265Z,98.61
2018-03-24T07:04:13.978Z,98.37
2018-03-24T07:06:41.758Z,97.96
2018-03-24T07:09:09.944Z,98.18
2018-03-24T07:11:37.725Z,98.18
2018-03-24T07:14:05.392Z,97.46
2018-03-24T07:16:33.487Z,97.28
2018-03-24T07:19:01.161Z,97.30
2018-03-24T07:21:28.833Z,96.78
2018-03-24T07:23:56.617Z,96.12
2018-03-24T07:26:24.393Z,96.48
2018-03-24T07:28:52.169Z,94.93
2018-03-24T07:31:20.419Z,93.72
2018-03-24T07:33:48.041Z,91.47
2018-03-24T07:36:15.795Z,92.20
2018-03-24T07:38:45.020Z,91.87
2018-03-24T07:41:12.796Z,90.58
2018-03-24T07:43:40.381Z,91.16
2018-03-24T07:46:08.157Z,90.34
2018-03-24T07:48:35.814Z,90.97
2018-03-24T07:51:03.603Z,89.50
2018-03-24T07:53:31.383Z,89.79
2018-03-24T07:55:59.404Z,90.52
2018-03-24T07:58:27.251Z,88.89
2018-03-24T08:00:55.021Z,86.57
2018-03-24T08:03:22.686Z,85.02
2018-03-24T08:05:50.481Z,84.80
2018-03-24T08:08:18.357Z,83.77
2018-03-24T08:10:46.109Z,81.90
2018-03-24T08:13:13.912Z,81.29
2018-03-24T08:15:41.793Z,81.51
2018-03-24T08:18:09.569Z,81.69
2018-03-24T08:20:37.322Z,82.59
2018-03-24T08:23:05.130Z,82.06
2018-03-24T08:25:33.939Z,79.06
2018-03-24T08:28:01.823Z,80.52
2018-03-24T08:30:29.631Z,80.54
2018-03-24T08:32:57.466Z,78.02
2018-03-24T08:35:25.695Z,78.40
2018-03-24T08:37:53.441Z,77.17
2018-03-24T08:40:21.066Z,77.50
2018-03-24T08:42:48.789Z,75.47
2018-03-24T08:45:16.410Z,74.31
2018-03-24T08:47:44.411Z,71.73
2018-03-24T08:50:12.117Z,72.63
2018-03-24T08:52:39.897Z,74.52
2018-03-24T08:55:07.541Z,74.03
2018-03-24T08:57:35.226Z,74.71
2018-03-24T09:00:02.924Z,74.79
2018-03-24T09:02:30.574Z,74.31
2018-03-24T09:04:58.182Z,74.90
2018-03-24T09:07:25.830Z,72.92
2018-03-24T09:09:53.485Z,70.73
2018-03-24T09:12:21.098Z,70.65
2018-03-24T09:14:49.602Z,68.96
2018-03-24T09:17:17.239Z,70.52
2018-03-24T09:19:45.044Z,70.13
2018-03-24T09:22:12.827Z,69.76
2018-03-24T09:24:40.490Z,70.71
2018-03-24T09:27:08.294Z,69.33
2018-03-24T09:29:35.984Z,68.14
2018-03-24T09:32:03.639Z,68.65
2018-03-24T09:34:31.301Z,71.40
2018-03-24T09:36:58.943Z,71.77
2018-03-24T09:39:26.630Z,69.42
2018-03-24T09:41:54.252Z,68.54
2018-03-24T09:44:21.869Z,69.13
2018-03-24T09:46:49.859Z,65.68
2018-03-24T09:49:17.463Z,67.01
2018-03-24T09:51:45.098Z,65.82
2018-03-24T09:54:12.756Z,65.82
2018-03-24T09:56:40.432Z,65.90
2018-03-24T09:59:08.452Z,65.23
2018-03-24T10:01:36.114Z,65.49
2018-03-24T10:04:03.783Z,64.43
2018-03-24T10:06:31.502Z,66.24
2018-03-24T10:08:59.129Z,66.22
2018-03-24T10:11:26.744Z,65.60
2018-03-24T10:13:54.380Z,67.58
2018-03-24T10:16:22.072Z,64.53
2018-03-24T10:18:49.729Z,64.44
2018-03-24T10:24:24.245Z,65.62
2018-03-24T10:26:51.932Z,64.90
2018-03-24T10:29:19.565Z,66.69
2018-03-24T10:31:48.145Z,64.48
2018-03-24T10:34:15.836Z,65.62
2018-03-24T10:36:43.471Z,65.32
2018-03-24T10:39:11.090Z,65.88
2018-03-24T10:41:38.754Z,66.17
2018-03-24T10:44:06.378Z,65.89
2018-03-24T10:46:34.001Z,65.47
2018-03-24T10:49:01.661Z,65.42
2018-03-24T10:51:29.682Z,64.54
2018-03-24T10:53:57.365Z,61.63
2018-03-24T10:56:25.144Z,64.14
2018-03-24T10:58:52.807Z,61.35
2018-03-24T11:01:25.889Z,62.19
2018-03-24T11:03:53.908Z,61.84
2018-03-24T11:06:21.566Z,60.53
2018-03-24T11:08:49.180Z,62.76
2018-03-24T11:11:16.874Z,62.16
2018-03-24T11:13:44.530Z,63.67
2018-03-24T11:16:12.218Z,63.29
2018-03-24T11:18:39.852Z,64.45
2018-03-24T11:21:07.465Z,64.71
2018-03-24T11:23:35.140Z,64.38
2018-03-24T11:26:02.762Z,63.08
2018-03-24T11:28:30.450Z,62.09
2018-03-24T11:30:58.231Z,65.26
2018-03-24T11:33:25.895Z,64.82
2018-03-24T11:35:53.531Z,62.77
2018-03-24T11:38:21.141Z,63.14
2018-03-24T11:40:48.934Z,62.07
2018-03-24T11:43:16.558Z,62.82
2018-03-24T11:45:44.259Z,62.56
2018-03-24T11:48:11.855Z,62.15
2018-03-24T11:50:39.478Z,62.65
2018-03-24T11:53:07.125Z,64.06
2018-03-24T11:55:34.747Z,62.89
2018-03-24T11:58:02.561Z,61.63
2018-03-24T12:00:30.338Z,58.62
2018-03-24T12:02:58.116Z,59.95
2018-03-24T12:05:25.791Z,60.55
2018-03-24T12:07:53.402Z,59.69
2018-03-24T12:10:21.224Z,59.27
2018-03-24T12:12:48.818Z,60.61
2018-03-24T12:15:16.429Z,59.88
2018-03-24T12:17:44.150Z,58.25
2018-03-24T12:20:11.782Z,59.39
2018-03-24T12:22:39.453Z,56.55
2018-03-24T12:25:07.300Z,57.46
2018-03-24T12:27:35.075Z,57.85
2018-03-24T12:30:02.808Z,55.99
2018-03-24T12:32:30.523Z,57.77
2018-03-24T12:34:58.266Z,56.85
2018-03-24T12:37:25.979Z,55.29
2018-03-24T12:39:53.794Z,57.84
2018-03-24T12:42:21.545Z,58.03
2018-03-24T12:44:49.929Z,58.89
2018-03-24T12:47:17.609Z,57.13
2018-03-24T12:49:45.383Z,56.95
2018-03-24T12:52:13.024Z,58.97
2018-03-24T12:54:40.751Z,58.21
2018-03-24T12:57:08.512Z,59.22
2018-03-24T12:59:36.167Z,61.17
2018-03-24T13:02:04.165Z,59.97
2018-03-24T13:04:31.792Z,59.49
2018-03-24T13:06:59.441Z,59.00
2018-03-24T13:09:27.099Z,59.22
2018-03-24T13:11:54.872Z,58.98
2018-03-24T13:14:22.652Z,57.29
2018-03-24T13:16:50.440Z,59.59
2018-03-24T13:19:18.106Z,55.67
2018-03-24T13:21:45.881Z,57.03
2018-03-24T13:24:13.546Z,57.61
2018-03-24T13:26:41.747Z,61.14
2018-03-24T13:29:09.360Z,59.81
2018-03-24T13:31:36.976Z,60.21
2018-03-24T13:34:04.873Z,60.32
2018-03-24T13:36:32.652Z,58.38
2018-03-24T13:39:00.325Z,60.29
2018-03-24T13:41:28.241Z,59.59
2018-03-24T13:43:55.879Z,58.83
2018-03-24T13:46:23.496Z,57.00
2018-03-24T13:48:51.177Z,56.35
2018-03-24T13:51:19.012Z,55.34
2018-03-24T13:53:46.787Z,57.62
2018-03-24T13:56:14.446Z,57.05
2018-03-24T13:58:42.063Z,59.17
2018-03-24T14:01:09.918Z,58.71
2018-03-24T14:03:37.573Z,58.92
2018-03-24T14:06:05.335Z,57.87
2018-03-24T14:08:32.984Z,58.48
2018-03-24T14:11:00.619Z,58.60
2018-03-24T14:13:28.362Z,60.22
2018-03-24T14:15:56.190Z,59.39
2018-03-24T14:18:24.192Z,57.96
2018-03-24T14:20:51.818Z,59.34
2018-03-24T14:23:19.612Z,57.93
2018-03-24T14:25:47.332Z,58.37
2018-03-24T14:28:15.066Z,58.45
2018-03-24T14:30:42.843Z,59.58
2018-03-24T14:33:10.530Z,58.42
2018-03-24T14:35:38.154Z,58.78
2018-03-24T14:38:05.778Z,58.71
2018-03-24T14:40:33.452Z,58.82
2018-03-24T14:43:01.108Z,59.31
2018-03-24T14:45:28.805Z,57.93
2018-03-24T14:47:57.083Z,57.58
2018-03-24T14:50:24.716Z,59.44
2018-03-24T14:52:52.434Z,57.94
2018-03-24T14:55:20.173Z,58.70
2018-03-24T14:57:47.788Z,60.21
2018-03-24T15:00:15.557Z,60.11
2018-03-24T15:02:43.213Z,59.66
2018-03-24T15:05:10.921Z,59.21
2018-03-24T15:07:38.591Z,59.48
2018-03-24T15:10:06.250Z,58.60
2018-03-24T15:12:34.017Z,59.51
2018-03-24T15:15:01.683Z,58.72
2018-03-24T15:17:29.306Z,59.98
2018-03-24T15:19:57.488Z,58.45
2018-03-24T15:22:25.266Z,58.90
2018-03-24T15:24:52.998Z,57.68
2018-03-24T15:27:20.668Z,55.82
2018-03-24T15:30:00.206Z,56.23
2018-03-24T15:35:32.397Z,57.16
2018-03-24T15:38:00.268Z,55.68
2018-03-24T15:40:28.040Z,55.02
2018-03-24T15:42:55.789Z,55.48
2018-03-24T15:45:23.913Z,55.28
2018-03-24T15:47:51.788Z,55.08
2018-03-24T15:50:19.514Z,55.58
2018-03-24T15:52:47.138Z,57.53
2018-03-24T15:55:14.877Z,55.96
2018-03-24T15:57:42.695Z,55.33
2018-03-24T16:00:10.468Z,58.15
2018-03-24T16:02:38.103Z,56.75
2018-03-24T16:05:05.745Z,56.80
2018-03-24T16:07:33.440Z,57.73
2018-03-24T16:10:01.047Z,57.37
2018-03-24T16:12:28.710Z,56.80
2018-03-24T16:14:56.402Z,56.83
2018-03-24T16:17:24.000Z,55.33
2018-03-24T16:19:51.626Z,57.40
2018-03-24T16:22:19.623Z,58.10
2018-03-24T16:24:47.383Z,56.67
2018-03-24T16:27:15.004Z,56.84
2018-03-24T16:29:42.684Z,58.62
2018-03-24T16:32:10.306Z,58.54
2018-03-24T16:34:37.928Z,59.27
2018-03-24T16:37:05.638Z,58.86
2018-03-24T16:39:33.266Z,57.90
2018-03-24T16:42:00.885Z,57.25
2018-03-24T16:44:28.550Z,57.98
2018-03-24T16:46:56.176Z,57.39
2018-03-24T16:49:23.867Z,58.63
2018-03-24T16:51:51.519Z,58.29
2018-03-24T16:54:19.338Z,59.13
2018-03-24T16:56:47.114Z,58.71
2018-03-24T16:59:14.737Z,58.37
2018-03-24T17:01:42.569Z,58.16
2018-03-24T17:04:10.346Z,58.52
2018-03-24T17:06:38.227Z,59.22
2018-03-24T17:09:06.106Z,58.66
2018-03-24T17:11:33.882Z,59.76
2018-03-24T17:14:01.662Z,60.58
2018-03-24T17:16:29.347Z,60.72
2018-03-24T17:18:57.466Z,60.74
2018-03-24T17:21:25.302Z,59.96
2018-03-24T17:23:53.048Z,60.11
2018-03-24T17:26:21.276Z,61.55
2018-03-24T17:28:49.046Z,61.18
2018-03-24T17:31:16.689Z,60.26
2018-03-24T17:33:44.374Z,61.21
2018-03-24T17:36:11.992Z,60.32
2018-03-24T17:38:39.620Z,60.59
2018-03-24T17:41:07.713Z,60.23
2018-03-24T17:43:35.333Z,62.89
2018-03-24T17:46:02.983Z,62.12
2018-03-24T17:48:30.654Z,60.88
2018-03-24T17:50:58.367Z,61.76
2018-03-24T17:53:26.022Z,62.10
2018-03-24T17:55:53.647Z,62.47
2018-03-24T17:58:22.080Z,63.66
2018-03-24T18:00:49.766Z,64.24
2018-03-24T18:03:17.400Z,64.34
2018-03-24T18:05:44.999Z,65.40
2018-03-24T18:08:12.690Z,65.20
2018-03-24T18:10:40.306Z,65.83
2018-03-24T18:13:07.924Z,65.93
2018-03-24T18:15:35.602Z,65.96
2018-03-24T18:18:03.209Z,66.19
2018-03-24T18:20:30.851Z,66.56
2018-03-24T18:22:58.488Z,66.44
2018-03-24T18:25:26.153Z,66.40
2018-03-24T18:27:53.774Z,66.72
2018-03-24T18:30:21.383Z,67.08
2018-03-24T18:32:49.133Z,67.16
2018-03-24T18:35:16.753Z,67.23
2018-03-24T18:37:44.372Z,67.89
2018-03-24T18:40:12.067Z,67.69
2018-03-24T18:42:39.727Z,68.75
2018-03-24T18:45:07.354Z,68.66
2018-03-24T18:47:35.024Z,68.71
2018-03-24T18:50:02.664Z,69.40
2018-03-24T18:52:30.299Z,69.01
2018-03-24T18:54:57.979Z,68.37
2018-03-24T18:57:25.588Z,68.84
2018-03-24T18:59:53.233Z,69.61
2018-03-24T19:02:20.913Z,69.29
2018-03-24T19:04:48.599Z,68.32
2018-03-24T19:07:16.234Z,68.62
2018-03-24T19:09:43.851Z,69.56
2018-03-24T19:12:11.526Z,69.91
2018-03-24T19:14:39.223Z,71.18
2018-03-24T19:17:06.844Z,70.08
2018-03-24T19:19:34.479Z,69.78
2018-03-24T19:22:02.141Z,71.08
2018-03-24T19:24:29.744Z,72.05
2018-03-24T19:26:57.418Z,73.17
2018-03-24T19:29:25.043Z,73.00
2018-03-24T19:31:52.648Z,71.61
2018-03-24T19:34:20.306Z,71.04
2018-03-24T19:36:47.930Z,71.40
2018-03-24T19:39:15.589Z,72.33
2018-03-24T19:41:43.185Z,72.26
2018-03-24T19:44:10.855Z,73.11
2018-03-24T19:46:38.973Z,71.10
2018-03-24T19:49:06.572Z,72.41
2018-03-24T19:51:34.174Z,74.37
2018-03-24T19:54:01.825Z,73.99
2018-03-24T19:56:29.488Z,73.30
2018-03-24T19:58:57.145Z,74.69
2018-03-24T20:01:24.769Z,74.97
2018-03-24T20:03:52.475Z,75.48
2018-03-24T20:06:20.094Z,76.01
2018-03-24T20:08:47.761Z,73.90
2018-03-24T20:11:15.420Z,73.98
2018-03-24T20:13:43.028Z,76.13
2018-03-24T20:16:11.076Z,75.61
2018-03-24T20:18:38.680Z,74.99
2018-03-24T20:21:06.291Z,74.16
2018-03-24T20:23:34.020Z,71.37
2018-03-24T20:26:01.739Z,69.38
2018-03-24T20:28:29.358Z,70.29
2018-03-24T20:30:56.969Z,69.55
2018-03-24T20:33:24.641Z,68.58
2018-03-24T20:35:52.258Z,69.00
2018-03-24T20:38:19.876Z,69.63
2018-03-24T20:40:47.549Z,68.67
2018-03-24T20:43:15.138Z,69.07
2018-03-24T20:45:42.786Z,68.14
2018-03-24T20:48:10.384Z,68.89
2018-03-24T20:50:38.408Z,67.51
2018-03-24T20:53:06.019Z,67.18
2018-03-24T20:55:33.660Z,67.03
2018-03-24T20:58:01.315Z,66.82
2018-03-24T21:00:28.937Z,66.83
2018-03-24T21:02:56.582Z,66.88
2018-03-24T21:05:24.171Z,66.29
2018-03-24T21:07:51.868Z,66.03
2018-03-24T21:10:19.444Z,68.53
2018-03-24T21:12:47.043Z,67.11
2018-03-24T21:15:14.694Z,67.36
2018-03-24T21:17:42.300Z,70.43
2018-03-24T21:20:10.271Z,72.40
2018-03-24T21:22:37.878Z,74.35
2018-03-24T21:25:05.505Z,75.70
2018-03-24T21:27:33.180Z,76.29
2018-03-24T21:30:00.848Z,70.97
2018-03-24T21:32:28.438Z,73.53
2018-03-24T21:34:56.086Z,76.60
2018-03-24T21:37:23.751Z,75.75
2018-03-24T21:39:51.383Z,77.20
2018-03-24T21:42:18.975Z,78.65
2018-03-24T21:44:46.629Z,80.11
2018-03-24T21:47:14.213Z,82.21
2018-03-24T21:49:41.868Z,83.39
2018-03-24T21:52:09.475Z,84.42
2018-03-24T21:54:37.076Z,85.32
2018-03-24T21:57:04.744Z,86.04
2018-03-24T21:59:32.550Z,85.97
2018-03-24T22:02:00.173Z,85.45
2018-03-24T22:04:27.803Z,85.08
2018-03-24T22:06:55.400Z,84.41
2018-03-24T22:09:23.081Z,82.66
2018-03-24T22:11:50.688Z,82.29
2018-03-24T22:14:18.298Z,83.71
2018-03-24T22:16:45.950Z,85.87
2018-03-24T22:19:13.543Z,87.04
2018-03-24T22:21:41.134Z,87.97
2018-03-24T22:24:08.808Z,88.75
2018-03-24T22:26:36.413Z,89.06
2018-03-24T22:29:04.428Z,89.50
2018-03-24T22:31:32.049Z,89.62
2018-03-24T22:33:59.668Z,89.70
2018-03-24T22:36:27.308Z,89.45
2018-03-24T22:38:54.937Z,90.61
2018-03-24T22:41:25.456Z,90.86
2018-03-24T22:43:53.072Z,91.06
2018-03-24T22:46:20.685Z,91.46
2018-03-24T22:48:48.326Z,91.23
2018-03-24T22:51:15.916Z,91.30
2018-03-24T22:53:43.529Z,91.64
2018-03-24T22:56:11.206Z,92.17
2018-03-24T22:58:38.816Z,92.77
2018-03-24T23:01:06.492Z,93.07
2018-03-24T23:03:34.932Z,93.00
2018-03-24T23:06:02.561Z,93.25
2018-03-24T23:08:30.200Z,93.37
2018-03-24T23:10:57.814Z,93.32
2018-03-24T23:13:25.456Z,93.20
2018-03-24T23:15:53.093Z,93.33
2018-03-24T23:18:20.693Z,93.49
2018-03-24T23:20:48.329Z,92.62
2018-03-24T23:23:15.987Z,93.06
2018-03-24T23:25:43.602Z,92.78
2018-03-24T23:28:12.186Z,92.70
2018-03-24T23:30:39.831Z,92.93
2018-03-24T23:33:08.328Z,93.69
2018-03-24T23:35:35.977Z,93.98
2018-03-24T23:38:04.385Z,93.68
2018-03-24T23:40:32.018Z,93.29
2018-03-24T23:42:59.954Z,93.70
2018-03-24T23:45:27.541Z,93.85
2018-03-24T23:47:55.136Z,93.70
2018-03-24T23:50:22.795Z,93.48
2018-03-24T23:52:50.382Z,92.96
2018-03-24T23:55:18.278Z,93.11
2018-03-24T23:57:46.246Z,92.94
